createdAt,value
2018-05-15T00:02:23.889Z,39.27
2018-05-15T00:04:51.389Z,34.73
2018-05-15T00:07:19.649Z,32.20
2018-05-15T00:09:47.867Z,39.43
2018-05-15T00:12:15.352Z,48.13
2018-05-15T00:14:42.835Z,45.00
2018-05-15T00:17:11.064Z,46.97
2018-05-15T00:19:39.324Z,48.13
2018-05-15T00:22:06.797Z,37.37
2018-05-15T00:24:34.308Z,34.63
2018-05-15T00:27:02.529Z,34.27
2018-05-15T00:29:29.985Z,36.07
2018-05-15T00:31:57.467Z,36.77
2018-05-15T00:34:24.968Z,35.07
2018-05-15T00:36:53.219Z,36.13
2018-05-15T00:39:20.755Z,33.93
2018-05-15T00:41:48.183Z,30.70
2018-05-15T00:44:15.669Z,29.00
2018-05-15T00:46:43.135Z,29.40
2018-05-15T00:49:10.625Z,30.73
2018-05-15T00:51:38.841Z,30.97
2018-05-15T00:54:06.284Z,28.57
2018-05-15T00:56:34.536Z,29.37
2018-05-15T00:59:02.752Z,28.30
2018-05-15T01:01:30.222Z,34.37
2018-05-15T01:03:57.697Z,32.73
2018-05-15T01:06:25.187Z,35.17
2018-05-15T01:08:53.496Z,34.40
2018-05-15T01:11:21.721Z,33.80
2018-05-15T01:13:49.192Z,30.33
2018-05-15T01:16:17.422Z,30.57
2018-05-15T01:18:44.883Z,38.20
2018-05-15T01:21:12.350Z,32.50
2018-05-15T01:23:39.824Z,32.20
2018-05-15T01:26:07.296Z,32.03
2018-05-15T01:28:35.545Z,28.13
2018-05-15T01:31:03.040Z,28.90
2018-05-15T01:33:30.506Z,34.70
2018-05-15T01:35:57.975Z,32.43
2018-05-15T01:38:25.464Z,31.70
2018-05-15T01:40:52.942Z,31.60
2018-05-15T01:43:20.408Z,30.33
2018-05-15T01:45:48.649Z,32.30
2018-05-15T01:48:16.105Z,41.50
2018-05-15T01:50:43.581Z,37.10
2018-05-15T01:53:11.031Z,33.50
2018-05-15T01:55:38.527Z,39.70
2018-05-15T01:58:06.774Z,36.37
2018-05-15T02:00:34.280Z,48.03
2018-05-15T02:03:01.770Z,37.80
2018-05-15T02:05:29.220Z,38.57
2018-05-15T02:07:56.732Z,44.23
2018-05-15T02:10:24.953Z,41.03
2018-05-15T02:12:52.440Z,50.77
2018-05-15T02:15:19.909Z,46.03
2018-05-15T02:17:47.388Z,59.47
2018-05-15T02:20:14.864Z,49.20
2018-05-15T02:22:42.349Z,55.80
2018-05-15T02:25:09.819Z,53.20
2018-05-15T02:27:37.309Z,64.73
2018-05-15T02:30:05.541Z,57.30
2018-05-15T02:32:33.034Z,65.83
2018-05-15T02:35:00.485Z,64.10
2018-05-15T02:37:27.932Z,57.13
2018-05-15T02:39:55.414Z,73.37
2018-05-15T02:42:23.646Z,61.47
2018-05-15T02:44:51.099Z,72.10
2018-05-15T02:47:18.594Z,70.17
2018-05-15T02:49:46.052Z,69.93
2018-05-15T02:52:13.520Z,69.90
2018-05-15T02:54:41.779Z,84.43
2018-05-15T02:57:09.262Z,72.70
2018-05-15T02:59:37.508Z,70.27
2018-05-15T03:02:04.994Z,71.83
2018-05-15T03:04:32.449Z,124.23
2018-05-15T03:07:00.729Z,260.67
2018-05-15T03:09:28.200Z,62.53
2018-05-15T03:11:55.693Z,59.57
2018-05-15T03:14:23.157Z,115.97
2018-05-15T03:16:50.642Z,86.17
2018-05-15T03:19:18.861Z,71.23
2018-05-15T03:21:46.329Z,68.97
2018-05-15T03:24:13.817Z,62.77
2018-05-15T03:26:41.281Z,61.73
2018-05-15T03:29:08.750Z,65.40
2018-05-15T03:31:37.023Z,57.63
2018-05-15T03:34:04.524Z,61.93
2018-05-15T03:36:31.966Z,56.30
2018-05-15T03:38:59.435Z,60.10
2018-05-15T03:41:26.904Z,58.20
2018-05-15T03:43:54.376Z,62.27
2018-05-15T03:46:21.883Z,62.90
2018-05-15T03:48:49.353Z,55.83
2018-05-15T03:51:17.593Z,59.70
2018-05-15T03:53:45.069Z,58.17
2018-05-15T03:56:13.280Z,54.93
2018-05-15T03:58:40.782Z,56.07
2018-05-15T04:01:20.268Z,60.30
2018-05-15T04:03:59.731Z,56.17
2018-05-15T04:06:39.041Z,60.00
2018-05-15T04:09:06.486Z,53.83
2018-05-15T04:11:33.964Z,52.40
2018-05-15T04:14:02.326Z,57.90
2018-05-15T04:16:29.835Z,59.90
2018-05-15T04:18:57.329Z,50.53
2018-05-15T04:21:25.560Z,50.40
2018-05-15T04:23:53.030Z,54.77
2018-05-15T04:26:20.498Z,47.67
2018-05-15T04:28:47.946Z,47.73
2018-05-15T04:31:15.445Z,45.73
2018-05-15T04:33:42.929Z,50.93
2018-05-15T04:36:10.429Z,50.90
2018-05-15T04:38:37.897Z,45.13
2018-05-15T04:41:06.170Z,48.00
2018-05-15T04:43:33.680Z,47.53
2018-05-15T04:46:01.898Z,53.93
2018-05-15T04:48:29.367Z,53.73
2018-05-15T04:50:57.630Z,54.10
2018-05-15T04:53:25.078Z,66.93
2018-05-15T04:55:52.941Z,53.20
2018-05-15T04:58:20.481Z,54.90
2018-05-15T05:00:47.933Z,51.33
2018-05-15T05:03:15.382Z,57.27
2018-05-15T05:05:42.863Z,55.93
2018-05-15T05:08:10.347Z,56.00
2018-05-15T05:10:37.828Z,57.27
2018-05-15T05:13:05.337Z,54.33
2018-05-15T05:15:32.799Z,56.77
2018-05-15T05:18:00.310Z,61.50
2018-05-15T05:20:27.759Z,56.97
2018-05-15T05:22:55.201Z,54.13
2018-05-15T05:25:23.436Z,67.10
2018-05-15T05:27:50.922Z,62.23
2018-05-15T05:30:18.385Z,62.27
2018-05-15T05:32:45.868Z,57.97
2018-05-15T05:35:13.321Z,57.90
2018-05-15T05:37:40.798Z,59.00
2018-05-15T05:40:08.342Z,58.07
2018-05-15T05:42:35.715Z,58.37
2018-05-15T05:45:03.189Z,64.37
2018-05-15T05:47:30.662Z,76.27
2018-05-15T05:49:58.145Z,62.70
2018-05-15T05:52:26.360Z,69.90
2018-05-15T05:54:53.867Z,69.83
2018-05-15T05:57:21.318Z,72.07
2018-05-15T05:59:48.808Z,78.23
2018-05-15T06:02:16.398Z,74.97
2018-05-15T06:04:43.887Z,74.10
2018-05-15T06:07:11.353Z,75.30
2018-05-15T06:09:38.831Z,71.50
2018-05-15T06:12:07.097Z,70.57
2018-05-15T06:14:34.585Z,70.03
2018-05-15T06:17:02.096Z,83.70
2018-05-15T06:19:29.596Z,75.33
2018-05-15T06:21:57.046Z,72.47
2018-05-15T06:24:25.293Z,67.90
2018-05-15T06:26:52.766Z,72.37
2018-05-15T06:29:20.990Z,63.23
2018-05-15T06:31:48.471Z,59.60
2018-05-15T06:34:15.944Z,68.37
2018-05-15T06:36:43.425Z,62.97
2018-05-15T06:39:11.661Z,61.20
2018-05-15T06:41:39.218Z,58.10
2018-05-15T06:44:06.680Z,70.77
2018-05-15T06:46:34.149Z,54.23
2018-05-15T06:49:01.640Z,53.47
2018-05-15T06:51:29.101Z,49.40
2018-05-15T06:53:56.582Z,42.93
2018-05-15T06:56:24.035Z,44.13
2018-05-15T06:58:51.543Z,43.30
2018-05-15T07:01:19.024Z,50.87
2018-05-15T07:03:47.265Z,51.10
2018-05-15T07:06:14.751Z,41.70
2018-05-15T07:08:43.006Z,42.33
2018-05-15T07:11:10.476Z,42.60
2018-05-15T07:13:38.720Z,42.93
2018-05-15T07:16:06.194Z,37.20
2018-05-15T07:18:33.668Z,34.87
2018-05-15T07:21:01.930Z,38.10
2018-05-15T07:23:29.393Z,36.57
2018-05-15T07:25:56.888Z,29.97
2018-05-15T07:28:24.361Z,34.40
2018-05-15T07:30:51.874Z,33.03
2018-05-15T07:33:19.345Z,32.87
2018-05-15T07:35:47.586Z,26.97
2018-05-15T07:38:15.065Z,30.13
2018-05-15T07:40:43.322Z,32.80
2018-05-15T07:43:10.799Z,32.40
2018-05-15T07:45:38.277Z,39.20
2018-05-15T07:48:05.750Z,31.17
2018-05-15T07:50:33.254Z,30.30
2018-05-15T07:53:00.729Z,34.43
2018-05-15T07:55:28.967Z,24.03
2018-05-15T07:57:56.521Z,28.00
2018-05-15T08:00:24.765Z,19.37
2018-05-15T08:02:52.219Z,23.63
2018-05-15T08:05:19.698Z,28.73
2018-05-15T08:07:47.168Z,21.77
2018-05-15T08:10:14.620Z,20.13
2018-05-15T08:12:42.099Z,27.70
2018-05-15T08:15:09.570Z,27.80
2018-05-15T08:17:37.084Z,18.90
2018-05-15T08:20:04.546Z,19.33
2018-05-15T08:22:32.119Z,20.77
2018-05-15T08:24:59.516Z,20.33
2018-05-15T08:27:27.002Z,19.27
2018-05-15T08:29:54.453Z,17.10
2018-05-15T08:32:21.930Z,21.87
2018-05-15T08:34:50.161Z,15.80
2018-05-15T08:37:17.702Z,16.37
2018-05-15T08:39:45.861Z,16.50
2018-05-15T08:42:13.344Z,18.63
2018-05-15T08:44:40.818Z,15.30
2018-05-15T08:47:09.029Z,16.00
2018-05-15T08:49:36.521Z,17.73
2018-05-15T08:52:04.009Z,17.10
2018-05-15T08:54:32.244Z,17.23
2018-05-15T08:56:59.698Z,18.30
2018-05-15T08:59:27.205Z,15.50
2018-05-15T09:01:55.430Z,13.10
2018-05-15T09:04:22.947Z,14.77
2018-05-15T09:06:50.412Z,15.73
2018-05-15T09:09:17.905Z,16.50
2018-05-15T09:11:45.413Z,14.03
2018-05-15T09:14:13.631Z,15.27
2018-05-15T09:16:41.142Z,22.53
2018-05-15T09:19:09.462Z,15.00
2018-05-15T09:21:36.861Z,24.07
2018-05-15T09:24:04.304Z,21.90
2018-05-15T09:26:31.790Z,14.73
2018-05-15T09:29:00.038Z,14.53
2018-05-15T09:31:27.523Z,17.80
2018-05-15T09:33:55.796Z,17.13
2018-05-15T09:36:24.122Z,14.10
2018-05-15T09:38:52.313Z,14.10
2018-05-15T09:41:19.791Z,14.40
2018-05-15T09:43:54.480Z,18.20
2018-05-15T09:46:21.960Z,17.43
2018-05-15T09:48:49.446Z,13.60
2018-05-15T09:51:17.695Z,15.27
2018-05-15T09:53:45.202Z,16.73
2018-05-15T09:56:12.693Z,13.40
2018-05-15T09:58:40.182Z,12.97
2018-05-15T10:01:07.698Z,15.70
2018-05-15T10:03:36.202Z,12.43
2018-05-15T10:06:04.492Z,11.30
2018-05-15T10:08:31.966Z,13.27
2018-05-15T10:11:00.223Z,13.27
2018-05-15T10:13:27.693Z,15.97
2018-05-15T10:15:55.166Z,11.97
2018-05-15T10:18:23.428Z,18.00
2018-05-15T10:20:50.917Z,10.80
2018-05-15T10:23:18.394Z,10.73
2018-05-15T10:25:45.882Z,14.10
2018-05-15T10:28:13.368Z,11.60
2018-05-15T10:30:41.628Z,11.93
2018-05-15T10:33:09.105Z,12.00
2018-05-15T10:35:37.354Z,11.60
2018-05-15T10:38:04.823Z,12.00
2018-05-15T10:40:32.291Z,11.27
2018-05-15T10:42:59.792Z,12.03
2018-05-15T10:45:27.249Z,11.90
2018-05-15T10:47:55.543Z,18.47
2018-05-15T10:50:23.046Z,14.70
2018-05-15T10:52:51.296Z,14.80
2018-05-15T10:55:18.829Z,13.87
2018-05-15T10:57:46.308Z,13.37
2018-05-15T11:00:13.777Z,19.97
2018-05-15T11:02:41.271Z,14.93
2018-05-15T11:05:08.769Z,16.33
2018-05-15T11:07:36.249Z,15.07
2018-05-15T11:10:03.756Z,16.33
2018-05-15T11:12:31.256Z,14.37
2018-05-15T11:14:58.755Z,13.70
2018-05-15T11:17:26.277Z,14.13
2018-05-15T11:20:05.554Z,11.57
2018-05-15T11:22:44.945Z,15.53
2018-05-15T11:25:12.413Z,13.17
2018-05-15T11:27:39.899Z,13.60
2018-05-15T11:30:07.395Z,14.37
2018-05-15T11:32:34.918Z,13.10
2018-05-15T11:35:03.124Z,11.70
2018-05-15T11:37:30.612Z,16.90
2018-05-15T11:39:58.114Z,11.33
2018-05-15T11:42:25.564Z,11.43
2018-05-15T11:44:53.034Z,16.70
2018-05-15T11:47:20.562Z,12.73
2018-05-15T11:49:48.865Z,11.77
2018-05-15T11:52:16.160Z,11.53
2018-05-15T11:54:43.022Z,17.43
2018-05-15T11:57:10.509Z,11.10
2018-05-15T11:59:38.024Z,10.10
2018-05-15T12:02:05.480Z,12.23
2018-05-15T12:04:32.961Z,14.13
2018-05-15T12:07:00.428Z,12.17
2018-05-15T12:09:28.653Z,12.63
2018-05-15T12:11:56.124Z,12.30
2018-05-15T12:14:23.612Z,12.83
2018-05-15T12:16:51.101Z,14.03
2018-05-15T12:19:18.558Z,12.90
2018-05-15T12:21:46.022Z,12.93
2018-05-15T12:24:13.524Z,12.33
2018-05-15T12:26:41.032Z,9.57
2018-05-15T12:29:08.502Z,8.80
2018-05-15T12:31:36.732Z,9.47
2018-05-15T12:34:04.979Z,10.57
2018-05-15T12:36:32.510Z,11.70
2018-05-15T12:38:59.938Z,9.47
2018-05-15T12:41:28.330Z,9.93
2018-05-15T12:43:56.431Z,10.40
2018-05-15T12:46:23.949Z,11.70
2018-05-15T12:48:52.243Z,11.07
2018-05-15T12:51:19.661Z,11.45
2018-05-15T12:53:47.178Z,10.23
2018-05-15T12:56:14.648Z,17.07
2018-05-15T12:58:42.912Z,10.43
2018-05-15T13:01:10.412Z,11.17
2018-05-15T13:03:37.896Z,10.57
2018-05-15T13:06:06.264Z,10.38
2018-05-15T13:08:34.517Z,9.60
2018-05-15T13:11:01.994Z,9.03
2018-05-15T13:13:30.224Z,8.97
2018-05-15T13:15:57.701Z,9.03
2018-05-15T13:18:25.205Z,8.60
2018-05-15T13:20:52.659Z,6.83
2018-05-15T13:23:20.168Z,6.90
2018-05-15T13:25:47.650Z,4.80
2018-05-15T13:28:15.878Z,4.67
2018-05-15T13:30:43.377Z,6.07
2018-05-15T13:33:10.881Z,5.00
2018-05-15T13:35:38.370Z,4.30
2018-05-15T13:38:05.859Z,4.27
2018-05-15T13:40:33.376Z,6.17
2018-05-15T13:43:00.856Z,11.00
2018-05-15T13:45:28.334Z,5.40
2018-05-15T13:47:55.837Z,4.47
2018-05-15T13:50:23.417Z,3.47
2018-05-15T13:52:50.885Z,6.43
2018-05-15T13:55:18.378Z,4.60
2018-05-15T13:57:46.614Z,5.40
2018-05-15T14:00:14.122Z,4.60
2018-05-15T14:02:42.319Z,6.90
2018-05-15T14:05:09.812Z,4.77
2018-05-15T14:07:37.302Z,5.80
2018-05-15T14:10:04.810Z,4.73
2018-05-15T14:12:32.265Z,4.53
2018-05-15T14:14:59.725Z,4.70
2018-05-15T14:17:27.179Z,4.83
2018-05-15T14:19:54.684Z,4.87
2018-05-15T14:22:22.152Z,5.27
2018-05-15T14:24:50.383Z,4.90
2018-05-15T14:27:17.887Z,4.87
2018-05-15T14:29:46.147Z,4.53
2018-05-15T14:32:14.374Z,4.80
2018-05-15T14:34:41.868Z,4.33
2018-05-15T14:37:09.350Z,5.10
2018-05-15T14:39:37.618Z,5.07
2018-05-15T14:42:17.729Z,4.00
2018-05-15T14:44:45.194Z,4.60
2018-05-15T14:47:12.700Z,4.67
2018-05-15T14:49:40.964Z,4.57
2018-05-15T14:52:09.168Z,4.83
2018-05-15T14:54:36.888Z,4.67
2018-05-15T14:57:04.397Z,5.80
2018-05-15T14:59:31.901Z,5.90
2018-05-15T15:01:59.362Z,5.60
2018-05-15T15:04:26.847Z,6.50
2018-05-15T15:06:55.077Z,8.00
2018-05-15T15:09:22.572Z,10.00
2018-05-15T15:11:50.792Z,11.43
2018-05-15T15:14:18.258Z,7.83
2018-05-15T15:16:45.731Z,7.30
2018-05-15T15:19:13.180Z,10.30
2018-05-15T15:21:40.667Z,8.83
2018-05-15T15:24:08.893Z,18.23
2018-05-15T15:26:37.157Z,9.90
2018-05-15T15:29:04.615Z,12.13
2018-05-15T15:31:32.120Z,9.50
2018-05-15T15:33:59.564Z,23.03
2018-05-15T15:36:27.050Z,8.20
2018-05-15T15:38:55.304Z,7.83
2018-05-15T15:41:22.748Z,8.27
2018-05-15T15:43:50.231Z,6.87
2018-05-15T15:46:17.661Z,14.03
2018-05-15T15:48:45.153Z,7.63
2018-05-15T15:51:13.397Z,8.40
2018-05-15T15:53:40.844Z,12.43
2018-05-15T15:56:08.315Z,15.43
2018-05-15T15:58:35.770Z,7.30
2018-05-15T16:01:03.243Z,7.60
2018-05-15T16:03:30.860Z,12.10
2018-05-15T16:05:58.330Z,15.37
2018-05-15T16:08:25.804Z,8.60
2018-05-15T16:10:53.274Z,8.33
2018-05-15T16:13:20.747Z,8.23
2018-05-15T16:15:48.965Z,7.80
2018-05-15T16:18:16.475Z,8.23
2018-05-15T16:20:43.970Z,8.40
2018-05-15T16:23:11.491Z,8.57
2018-05-15T16:25:38.953Z,19.77
2018-05-15T16:28:06.452Z,13.43
2018-05-15T16:30:33.938Z,6.60
2018-05-15T16:33:01.399Z,5.93
2018-05-15T16:35:28.861Z,4.50
2018-05-15T16:37:56.333Z,4.50
2018-05-15T16:40:23.781Z,5.23
2018-05-15T16:42:51.268Z,5.17
2018-05-15T16:45:19.527Z,8.73
2018-05-15T16:47:46.980Z,5.47
2018-05-15T16:50:14.469Z,5.53
2018-05-15T16:52:41.948Z,5.97
2018-05-15T16:55:09.461Z,5.20
2018-05-15T16:57:36.949Z,4.90
2018-05-15T17:00:04.410Z,5.50
2018-05-15T17:02:31.910Z,5.80
2018-05-15T17:04:59.563Z,5.70
2018-05-15T17:07:27.134Z,9.83
2018-05-15T17:09:54.579Z,5.70
2018-05-15T17:12:22.055Z,5.67
2018-05-15T17:14:49.687Z,7.87
2018-05-15T17:17:17.182Z,4.83
2018-05-15T17:19:44.640Z,8.73
2018-05-15T17:22:12.185Z,8.00
2018-05-15T17:24:39.661Z,5.33
2018-05-15T17:27:07.290Z,4.90
2018-05-15T17:29:35.043Z,4.27
2018-05-15T17:32:02.519Z,5.27
2018-05-15T17:34:30.248Z,5.00
2018-05-15T17:36:57.843Z,5.57
2018-05-15T17:39:25.332Z,5.93
2018-05-15T17:41:53.577Z,5.33
2018-05-15T17:44:21.120Z,4.90
2018-05-15T17:46:48.611Z,5.13
2018-05-15T17:49:16.208Z,5.20
2018-05-15T17:51:43.873Z,5.10
2018-05-15T17:54:11.339Z,5.30
2018-05-15T17:56:38.820Z,5.27
2018-05-15T17:59:06.453Z,5.33
2018-05-15T18:01:34.012Z,4.83
2018-05-15T18:04:01.471Z,6.20
2018-05-15T18:06:29.072Z,7.07
2018-05-15T18:08:57.203Z,6.17
2018-05-15T18:11:24.973Z,7.00
2018-05-15T18:13:52.541Z,8.83
2018-05-15T18:16:20.079Z,7.43
2018-05-15T18:18:47.612Z,7.87
2018-05-15T18:21:15.591Z,7.27
2018-05-15T18:23:43.077Z,6.90
2018-05-15T18:26:10.563Z,9.40
2018-05-15T18:28:38.190Z,9.33
2018-05-15T18:31:05.971Z,7.87
2018-05-15T18:33:33.576Z,13.20
2018-05-15T18:36:01.083Z,8.17
2018-05-15T18:38:28.724Z,9.33
2018-05-15T18:40:57.480Z,7.60
2018-05-15T18:43:24.988Z,8.80
2018-05-15T18:45:52.511Z,14.53
2018-05-15T18:48:19.985Z,8.70
2018-05-15T18:50:48.450Z,11.43
2018-05-15T18:53:16.239Z,12.00
2018-05-15T18:55:43.789Z,7.77
2018-05-15T18:58:12.024Z,7.43
2018-05-15T19:00:39.541Z,11.27
2018-05-15T19:03:07.551Z,7.67
2018-05-15T19:05:35.148Z,8.30
2018-05-15T19:08:02.683Z,10.07
2018-05-15T19:10:30.234Z,8.20
2018-05-15T19:12:58.036Z,9.23
2018-05-15T19:15:26.667Z,8.40
2018-05-15T19:17:54.157Z,8.20
2018-05-15T19:20:21.612Z,9.20
2018-05-15T19:22:49.254Z,9.20
2018-05-15T19:25:17.174Z,8.83
2018-05-15T19:27:44.670Z,11.53
2018-05-15T19:30:12.151Z,13.73
2018-05-15T19:32:39.644Z,9.70
2018-05-15T19:35:08.664Z,10.57
2018-05-15T19:37:36.435Z,9.37
2018-05-15T19:40:10.560Z,10.03
2018-05-15T19:42:38.158Z,12.00
2018-05-15T19:45:06.474Z,9.43
2018-05-15T19:47:33.885Z,10.23
2018-05-15T19:50:01.518Z,16.03
2018-05-15T19:52:29.458Z,9.70
2018-05-15T19:54:58.583Z,10.03
2018-05-15T19:57:26.875Z,10.37
2018-05-15T19:59:54.331Z,10.13
2018-05-15T20:02:21.802Z,9.63
2018-05-15T20:04:49.846Z,10.13
2018-05-15T20:07:17.382Z,14.00
2018-05-15T20:09:44.877Z,11.10
2018-05-15T20:12:12.570Z,12.10
2018-05-15T20:14:40.432Z,12.37
2018-05-15T20:17:07.937Z,12.17
2018-05-15T20:19:35.498Z,12.40
2018-05-15T20:22:02.991Z,14.17
2018-05-15T20:24:30.931Z,18.70
2018-05-15T20:26:59.704Z,19.00
2018-05-15T20:29:27.329Z,17.70
2018-05-15T20:31:55.674Z,15.00
2018-05-15T20:34:23.170Z,14.10
2018-05-15T20:36:51.015Z,25.93
2018-05-15T20:39:18.801Z,16.47
2018-05-15T20:41:46.884Z,15.43
2018-05-15T20:44:14.350Z,19.70
2018-05-15T20:46:41.946Z,15.30
2018-05-15T20:49:09.400Z,15.50
2018-05-15T20:51:36.901Z,13.67
2018-05-15T20:54:05.161Z,12.97
2018-05-15T20:56:32.745Z,15.30
2018-05-15T20:59:00.243Z,14.33
2018-05-15T21:01:27.791Z,15.57
2018-05-15T21:03:55.293Z,15.07
2018-05-15T21:06:22.865Z,14.63
2018-05-15T21:08:51.163Z,15.60
2018-05-15T21:11:18.631Z,17.53
2018-05-15T21:13:46.113Z,22.27
2018-05-15T21:16:13.597Z,14.37
2018-05-15T21:18:41.073Z,19.30
2018-05-15T21:21:09.317Z,17.30
2018-05-15T21:23:36.845Z,14.90
2018-05-15T21:26:04.385Z,17.40
2018-05-15T21:28:31.796Z,16.67
2018-05-15T21:30:59.250Z,17.93
2018-05-15T21:33:26.709Z,18.93
2018-05-15T21:35:54.240Z,17.20
2018-05-15T21:38:21.694Z,18.93
2018-05-15T21:40:49.168Z,19.40
2018-05-15T21:43:16.635Z,18.50
2018-05-15T21:45:44.145Z,15.30
2018-05-15T21:48:11.625Z,15.63
2018-05-15T21:50:39.096Z,17.90
2018-05-15T21:53:06.591Z,15.40
2018-05-15T21:55:34.067Z,15.70
2018-05-15T21:58:02.362Z,16.60
2018-05-15T22:00:29.832Z,15.80
2018-05-15T22:02:57.313Z,22.50
2018-05-15T22:05:24.790Z,19.50
2018-05-15T22:07:52.281Z,17.77
2018-05-15T22:10:19.733Z,33.13
2018-05-15T22:12:59.804Z,17.97
2018-05-15T22:15:39.318Z,20.00
2018-05-15T22:18:19.488Z,18.23
2018-05-15T22:20:59.116Z,21.33
2018-05-15T22:23:26.896Z,20.80
2018-05-15T22:25:54.369Z,19.80
2018-05-15T22:28:21.830Z,19.87
2018-05-15T22:30:49.310Z,24.67
2018-05-15T22:33:16.789Z,23.40
2018-05-15T22:35:44.278Z,24.73
2018-05-15T22:38:11.742Z,23.10
2018-05-15T22:40:39.210Z,23.90
2018-05-15T22:43:06.691Z,23.73
2018-05-15T22:45:34.164Z,21.67
2018-05-15T22:48:01.644Z,22.17
2018-05-15T22:50:29.095Z,23.40
2018-05-15T22:52:56.581Z,26.93
2018-05-15T22:55:24.039Z,24.90
2018-05-15T22:57:51.525Z,26.50
2018-05-15T23:00:19.008Z,25.53
2018-05-15T23:02:46.560Z,23.37
2018-05-15T23:05:13.948Z,34.07
2018-05-15T23:07:41.425Z,22.17
2018-05-15T23:10:08.920Z,28.20
2018-05-15T23:12:36.382Z,36.07
2018-05-15T23:15:03.876Z,35.43
2018-05-15T23:17:31.322Z,30.83
2018-05-15T23:19:58.808Z,23.83
2018-05-15T23:22:38.756Z,24.67
2018-05-15T23:25:07.008Z,22.73
2018-05-15T23:27:34.464Z,22.10
2018-05-15T23:30:01.942Z,24.43
2018-05-15T23:32:30.170Z,24.90
2018-05-15T23:34:57.649Z,33.23
2018-05-15T23:37:25.097Z,30.17
2018-05-15T23:39:52.569Z,31.20
2018-05-15T23:42:20.046Z,27.20
2018-05-15T23:44:48.268Z,36.90
2018-05-15T23:47:15.764Z,28.00
2018-05-15T23:49:43.222Z,30.37
2018-05-15T23:52:10.719Z,30.80
2018-05-15T23:54:38.177Z,26.63
2018-05-15T23:57:05.655Z,27.53
2018-05-15T23:59:33.113Z,34.07
